Time;durP1;ratioP1;P1;durP2;ratioP2;P2;SDS_P1;SDS_P2;PMS_P1;PMS_P2;Temp;Humidity;BMP_temperature;BMP_pressure;BME280_temperature;BME280_humidity;BME280_pressure;Samples;Min_cycle;Max_cycle;Signal;HPM_P1;HPM_P2
2022/10/09 00:01:26;;;;;;;19.30;12.40;;;14.40;38.00;;;;;;5024374;28;20180;-62
2022/10/09 00:03:54;;;;;;;11.67;10.87;;;14.40;37.90;;;;;;5027357;28;20415;-61
2022/10/09 00:06:26;;;;;;;12.27;11.27;;;14.40;38.00;;;;;;5025753;28;20419;-61
2022/10/09 00:08:52;;;;;;;12.90;11.90;;;14.40;37.80;;;;;;5026123;28;20468;-61
2022/10/09 00:11:23;;;;;;;12.50;11.60;;;14.40;37.70;;;;;;5027589;28;20449;-61
2022/10/09 00:13:50;;;;;;;12.50;11.63;;;14.40;37.80;;;;;;5042814;28;20596;-56
2022/10/09 00:16:17;;;;;;;14.60;13.40;;;14.40;37.70;;;;;;5062033;28;20417;-56
2022/10/09 00:18:43;;;;;;;13.13;11.30;;;14.40;37.90;;;;;;5047003;28;20511;-56
2022/10/09 00:21:20;;;;;;;13.23;12.00;;;14.40;38.00;;;;;;5044731;28;20410;-56
2022/10/09 00:23:46;;;;;;;13.83;12.77;;;14.40;37.70;;;;;;5045306;28;20443;-56
2022/10/09 00:26:12;;;;;;;12.50;11.60;;;14.40;37.60;;;;;;5044906;28;20418;-55
2022/10/09 00:28:38;;;;;;;13.23;12.07;;;14.40;37.40;;;;;;5045618;28;20451;-56
2022/10/09 00:31:06;;;;;;;13.60;12.20;;;14.30;37.30;;;;;;5043798;28;20421;-56
2022/10/09 00:33:33;;;;;;;12.40;11.50;;;14.30;37.60;;;;;;5046391;28;20437;-56
2022/10/09 00:36:03;;;;;;;12.17;11.53;;;14.30;37.60;;;;;;5044246;28;20425;-56
2022/10/09 00:38:28;;;;;;;12.40;11.70;;;14.30;37.30;;;;;;5045119;28;20471;-55
2022/10/09 00:40:54;;;;;;;12.50;11.70;;;14.30;37.40;;;;;;5042773;28;21072;-61
2022/10/09 00:43:41;;;;;;;12.77;11.87;;;14.20;37.20;;;;;;5044732;28;20179;-61
2022/10/09 00:46:16;;;;;;;13.23;12.27;;;14.20;37.40;;;;;;5043437;28;20175;-61
2022/10/09 00:48:42;;;;;;;13.40;12.50;;;14.20;37.30;;;;;;5046022;28;20860;-61
2022/10/09 00:51:08;;;;;;;13.07;12.00;;;14.20;37.10;;;;;;5043977;28;20428;-61
2022/10/09 00:53:34;;;;;;;13.97;12.87;;;14.20;37.20;;;;;;5044889;28;20248;-61
2022/10/09 00:56:00;;;;;;;12.27;11.47;;;14.20;37.20;;;;;;5043822;28;20422;-61
2022/10/09 00:58:26;;;;;;;12.70;12.00;;;14.20;37.50;;;;;;5045467;28;20245;-61
2022/10/09 01:00:52;;;;;;;18.00;13.30;;;14.10;37.40;;;;;;5043654;28;20228;-61
2022/10/09 01:03:17;;;;;;;14.80;13.63;;;14.10;37.70;;;;;;5042596;28;20179;-61
2022/10/09 01:06:17;;;;;;;13.23;12.33;;;14.00;38.10;;;;;;5044704;28;20516;-61
2022/10/09 01:09:12;;;;;;;12.37;11.67;;;14.10;37.70;;;;;;5042333;28;20175;-61
2022/10/09 01:11:59;;;;;;;13.70;12.60;;;14.00;37.60;;;;;;5042637;28;20933;-61
2022/10/09 01:14:36;;;;;;;12.97;12.07;;;14.10;37.40;;;;;;5043295;28;20971;-62
2022/10/09 01:17:16;;;;;;;13.17;12.27;;;14.10;37.20;;;;;;5044081;28;20795;-61
2022/10/09 01:20:00;;;;;;;12.90;11.93;;;14.00;37.10;;;;;;5060023;28;20492;-61
2022/10/09 01:22:58;;;;;;;14.37;12.93;;;14.00;37.10;;;;;;5043198;28;20471;-61
2022/10/09 01:25:44;;;;;;;12.27;11.37;;;14.00;37.00;;;;;;5002276;28;20472;-61
2022/10/09 01:28:12;;;;;;;13.20;12.30;;;14.00;36.70;;;;;;5004886;28;20417;-61
2022/10/09 01:30:37;;;;;;;11.70;11.00;;;14.00;36.50;;;;;;5043001;28;21000;-61
2022/10/09 01:33:04;;;;;;;13.10;12.37;;;14.00;36.40;;;;;;5043030;28;20409;-56
2022/10/09 01:35:30;;;;;;;12.97;11.93;;;14.00;36.40;;;;;;5042177;28;20175;-56
2022/10/09 01:37:57;;;;;;;12.23;11.50;;;13.90;36.50;;;;;;5044165;28;20469;-56
2022/10/09 01:40:25;;;;;;;12.47;11.67;;;14.00;36.60;;;;;;5040692;28;20429;-56
2022/10/09 01:42:51;;;;;;;11.83;11.03;;;13.90;36.20;;;;;;5042829;28;20913;-61
2022/10/09 01:45:16;;;;;;;13.10;12.20;;;13.90;36.40;;;;;;5043552;28;20463;-61
2022/10/09 01:47:42;;;;;;;12.70;11.70;;;13.80;36.60;;;;;;5041818;28;20421;-61
2022/10/09 01:50:23;;;;;;;12.33;11.43;;;13.80;36.70;;;;;;5044621;28;20191;-61
2022/10/09 01:53:07;;;;;;;14.00;12.90;;;13.80;36.60;;;;;;5044496;28;20218;-55
2022/10/09 01:55:48;;;;;;;13.03;12.13;;;13.80;36.80;;;;;;5044049;28;20798;-56
2022/10/09 01:58:19;;;;;;;12.57;11.70;;;13.80;36.90;;;;;;5043856;28;20547;-56
2022/10/09 02:00:55;;;;;;;11.97;11.00;;;13.80;37.00;;;;;;5043423;28;20505;-56
2022/10/09 02:03:23;;;;;;;12.03;11.23;;;13.80;36.90;;;;;;5042033;28;20754;-55
2022/10/09 02:05:50;;;;;;;11.23;10.43;;;13.80;36.80;;;;;;5040431;28;20858;-55
2022/10/09 02:08:18;;;;;;;12.47;11.57;;;13.60;37.40;;;;;;5042348;28;20422;-55
2022/10/09 02:10:45;;;;;;;13.43;12.47;;;13.40;38.00;;;;;;5043855;28;20425;-54
2022/10/09 02:13:12;;;;;;;13.73;12.83;;;13.50;38.40;;;;;;5043241;28;20949;-55
2022/10/09 02:15:51;;;;;;;13.07;12.20;;;13.50;38.10;;;;;;5042787;28;20515;-56
2022/10/09 02:18:36;;;;;;;13.47;12.33;;;13.60;37.80;;;;;;5042204;28;20473;-56
2022/10/09 02:21:10;;;;;;;14.20;13.23;;;13.60;37.70;;;;;;5043496;28;20918;-56
2022/10/09 02:23:37;;;;;;;15.30;13.93;;;13.60;37.40;;;;;;5042880;28;20616;-56
2022/10/09 02:26:03;;;;;;;13.03;12.03;;;13.60;37.30;;;;;;5041580;28;20902;-56
2022/10/09 02:28:29;;;;;;;12.80;11.80;;;13.60;37.50;;;;;;5045154;28;20425;-55
2022/10/09 02:31:08;;;;;;;13.67;12.87;;;13.60;37.40;;;;;;5040709;28;20429;-54
2022/10/09 02:33:34;;;;;;;12.87;12.07;;;13.60;37.50;;;;;;5041434;28;20179;-55
2022/10/09 02:36:00;;;;;;;12.10;11.30;;;13.60;37.40;;;;;;5041442;28;20423;-55
2022/10/09 02:38:26;;;;;;;13.67;12.77;;;13.60;37.30;;;;;;5042736;28;20215;-56
2022/10/09 02:40:55;;;;;;;13.50;12.60;;;13.60;36.80;;;;;;5044907;28;20483;-56
2022/10/09 02:43:21;;;;;;;13.93;12.80;;;13.60;36.80;;;;;;5062411;28;20547;-55
2022/10/09 02:45:46;;;;;;;12.93;12.03;;;13.60;36.40;;;;;;5044117;28;20432;-56
2022/10/09 02:48:12;;;;;;;13.50;12.50;;;13.50;36.90;;;;;;5044717;28;20183;-56
2022/10/09 02:50:37;;;;;;;13.27;12.17;;;13.50;36.90;;;;;;5046249;28;20190;-57
2022/10/09 02:53:03;;;;;;;13.50;12.40;;;13.50;36.70;;;;;;5045499;28;20651;-56
2022/10/09 02:55:29;;;;;;;12.83;11.60;;;13.50;36.50;;;;;;5044246;28;20278;-55
2022/10/09 02:57:54;;;;;;;13.87;12.77;;;13.50;36.30;;;;;;5045283;28;20227;-56
2022/10/09 03:00:20;;;;;;;13.67;12.87;;;13.50;36.30;;;;;;5045590;28;20775;-56
2022/10/09 03:02:46;;;;;;;12.53;11.83;;;13.50;36.00;;;;;;5045532;28;20190;-56
2022/10/09 03:05:11;;;;;;;12.23;11.63;;;13.50;36.10;;;;;;5046273;28;20745;-56
2022/10/09 03:07:37;;;;;;;13.17;12.17;;;13.50;36.00;;;;;;5046568;28;20184;-55
2022/10/09 03:10:03;;;;;;;14.03;13.20;;;13.50;36.10;;;;;;5045382;28;20194;-56
2022/10/09 03:12:28;;;;;;;13.27;12.37;;;13.50;36.20;;;;;;5048435;28;20296;-55
2022/10/09 03:14:54;;;;;;;13.30;12.50;;;13.50;36.00;;;;;;5047462;28;20949;-55
2022/10/09 03:17:20;;;;;;;12.40;11.60;;;13.40;35.90;;;;;;5046579;28;20239;-56
2022/10/09 03:19:45;;;;;;;12.87;11.77;;;13.40;36.00;;;;;;5050167;28;20183;-56
2022/10/09 03:22:11;;;;;;;13.03;12.10;;;13.40;35.80;;;;;;5049737;28;20187;-54
2022/10/09 03:24:36;;;;;;;13.90;13.00;;;13.40;35.80;;;;;;5048701;28;20202;-54
2022/10/09 03:27:02;;;;;;;12.57;11.87;;;13.30;35.90;;;;;;5050188;28;20205;-55
2022/10/09 03:29:28;;;;;;;12.63;11.80;;;13.30;36.20;;;;;;5052899;28;20266;-55
2022/10/09 03:31:53;;;;;;;12.43;11.33;;;13.30;36.20;;;;;;5050718;28;20175;-55
2022/10/09 03:34:19;;;;;;;11.97;11.07;;;13.30;36.30;;;;;;5052382;28;20186;-61
2022/10/09 03:36:45;;;;;;;12.90;12.20;;;13.30;36.40;;;;;;5051731;28;20693;-61
2022/10/09 03:39:11;;;;;;;13.37;12.67;;;13.30;36.40;;;;;;5052602;28;20515;-61
2022/10/09 03:41:36;;;;;;;13.17;12.30;;;13.30;36.00;;;;;;5051635;28;20413;-61
2022/10/09 03:44:02;;;;;;;15.70;11.37;;;13.30;36.10;;;;;;5052297;28;20245;-61
2022/10/09 03:46:28;;;;;;;12.10;11.30;;;13.30;35.90;;;;;;5054967;28;20241;-61
2022/10/09 03:48:53;;;;;;;13.03;12.03;;;13.30;35.70;;;;;;5050769;28;20179;-61
2022/10/09 03:51:19;;;;;;;12.93;12.13;;;13.30;35.90;;;;;;5049906;28;20183;-61
2022/10/09 03:53:44;;;;;;;12.07;11.27;;;13.20;36.00;;;;;;5053453;28;20618;-55
2022/10/09 03:56:10;;;;;;;14.03;13.03;;;13.20;36.10;;;;;;5055798;28;20285;-61
2022/10/09 03:58:36;;;;;;;11.70;11.10;;;13.20;35.80;;;;;;5054889;28;20229;-61
2022/10/09 04:01:01;;;;;;;13.50;12.60;;;13.20;35.90;;;;;;5052154;28;20180;-55
2022/10/09 04:03:27;;;;;;;12.80;12.13;;;13.20;35.60;;;;;;5055242;28;20201;-56
2022/10/09 04:05:53;;;;;;;11.47;10.77;;;13.10;36.00;;;;;;5055929;28;20179;-55
2022/10/09 04:08:19;;;;;;;13.17;12.07;;;13.10;36.00;;;;;;5054437;28;20487;-55
2022/10/09 04:10:44;;;;;;;11.80;11.20;;;13.10;35.90;;;;;;5054322;28;20183;-55
2022/10/09 04:13:10;;;;;;;13.30;12.20;;;13.10;35.80;;;;;;5054957;28;20198;-56
2022/10/09 04:15:36;;;;;;;12.37;11.77;;;13.10;35.80;;;;;;5054626;28;20658;-55
2022/10/09 04:18:02;;;;;;;11.40;10.80;;;13.10;35.80;;;;;;5053168;28;20693;-56
2022/10/09 04:20:28;;;;;;;12.43;11.53;;;13.10;35.50;;;;;;5054459;28;20406;-55
2022/10/09 04:22:53;;;;;;;13.57;12.80;;;13.10;35.60;;;;;;5054001;28;20440;-53
2022/10/09 04:25:19;;;;;;;12.73;11.93;;;13.00;35.80;;;;;;5053341;28;20175;-54
2022/10/09 04:27:45;;;;;;;13.30;12.57;;;13.00;35.60;;;;;;5053283;28;20183;-60
2022/10/09 04:30:11;;;;;;;14.07;13.07;;;13.00;35.70;;;;;;5054961;28;20198;-61
2022/10/09 04:32:36;;;;;;;12.70;12.00;;;13.00;35.50;;;;;;5053888;28;20199;-61
2022/10/09 04:35:02;;;;;;;12.77;11.93;;;13.00;35.50;;;;;;5054642;28;20520;-61
2022/10/09 04:37:28;;;;;;;12.17;10.67;;;13.10;35.40;;;;;;5055146;28;20210;-61
2022/10/09 04:39:53;;;;;;;11.93;11.33;;;13.00;35.40;;;;;;5054092;28;20425;-61
2022/10/09 04:42:19;;;;;;;12.40;11.50;;;13.00;35.70;;;;;;5054509;28;20217;-61
2022/10/09 04:44:45;;;;;;;13.67;12.87;;;13.00;35.90;;;;;;5054556;28;20577;-61
2022/10/09 04:47:10;;;;;;;12.70;11.30;;;13.00;35.70;;;;;;5053805;28;20210;-61
2022/10/09 04:49:36;;;;;;;12.83;12.13;;;13.00;35.40;;;;;;5052433;28;20211;-61
2022/10/09 04:52:01;;;;;;;13.37;12.60;;;13.00;35.40;;;;;;5054433;28;20179;-61
2022/10/09 04:54:27;;;;;;;13.87;13.07;;;13.00;35.40;;;;;;5052813;28;20179;-61
2022/10/09 04:56:52;;;;;;;13.27;12.47;;;13.00;35.20;;;;;;5054269;28;20693;-61
2022/10/09 04:59:18;;;;;;;13.00;12.17;;;13.00;35.30;;;;;;5054198;28;20179;-61
2022/10/09 05:01:44;;;;;;;12.30;11.50;;;12.90;35.30;;;;;;5051245;28;20617;-61
2022/10/09 05:04:10;;;;;;;13.03;12.33;;;12.90;35.60;;;;;;5053070;28;20252;-61
2022/10/09 05:06:35;;;;;;;13.90;13.00;;;12.90;35.60;;;;;;5051132;28;20187;-61
2022/10/09 05:09:01;;;;;;;14.10;13.00;;;12.80;36.20;;;;;;5054136;28;20229;-61
2022/10/09 05:11:27;;;;;;;14.87;14.07;;;12.40;37.40;;;;;;5052587;28;20184;-61
2022/10/09 05:13:54;;;;;;;14.50;13.23;;;12.40;38.20;;;;;;5051477;28;20219;-61
2022/10/09 05:16:23;;;;;;;14.00;13.20;;;12.40;37.80;;;;;;5052415;28;20218;-61
2022/10/09 05:18:51;;;;;;;13.70;12.80;;;12.50;37.40;;;;;;5050574;28;20485;-61
2022/10/09 05:21:18;;;;;;;14.60;13.67;;;12.60;37.10;;;;;;5051251;28;20412;-61
2022/10/09 05:23:44;;;;;;;12.93;12.23;;;12.60;36.60;;;;;;5048929;28;20418;-61
2022/10/09 05:26:16;;;;;;;12.70;12.10;;;12.70;36.10;;;;;;5051280;28;20418;-63
2022/10/09 05:28:42;;;;;;;12.80;12.10;;;12.70;36.00;;;;;;5050120;28;20440;-63
2022/10/09 05:31:08;;;;;;;13.00;12.10;;;12.70;35.90;;;;;;5050464;28;20433;-64
2022/10/09 05:33:34;;;;;;;11.73;11.13;;;12.70;36.60;;;;;;5049312;28;20430;-64
2022/10/09 05:36:02;;;;;;;12.30;11.30;;;12.70;36.20;;;;;;5048796;28;20467;-63
2022/10/09 05:38:28;;;;;;;10.63;10.07;;;12.70;35.70;;;;;;5064698;28;20472;-63
2022/10/09 05:41:01;;;;;;;11.17;10.40;;;12.60;35.90;;;;;;5044891;28;21031;-58
2022/10/09 05:43:34;;;;;;;13.73;12.57;;;12.60;36.50;;;;;;5042917;28;20176;-57
2022/10/09 05:46:11;;;;;;;13.27;12.37;;;12.70;36.00;;;;;;5043637;28;20452;-63
2022/10/09 05:48:39;;;;;;;13.50;12.70;;;12.70;35.90;;;;;;5045676;28;20429;-63
2022/10/09 05:51:10;;;;;;;13.33;12.27;;;12.70;35.50;;;;;;5041579;28;20525;-58
2022/10/09 05:53:36;;;;;;;12.60;11.90;;;12.40;35.90;;;;;;5042487;28;20506;-58
2022/10/09 05:56:16;;;;;;;13.70;12.90;;;12.40;36.80;;;;;;5041018;28;20418;-57
2022/10/09 05:58:43;;;;;;;13.27;12.57;;;12.40;36.50;;;;;;5040450;28;20467;-58
2022/10/09 06:01:09;;;;;;;13.90;12.60;;;12.50;36.20;;;;;;5042615;28;20407;-58
2022/10/09 06:03:37;;;;;;;13.77;12.97;;;12.60;35.80;;;;;;5043211;28;20414;-58
2022/10/09 06:06:05;;;;;;;13.43;12.73;;;12.60;35.40;;;;;;5042531;28;21291;-58
2022/10/09 06:08:36;;;;;;;13.03;12.17;;;12.60;35.70;;;;;;5040416;28;20778;-63
2022/10/09 06:11:13;;;;;;;12.53;11.93;;;12.60;36.20;;;;;;5042101;28;20506;-57
2022/10/09 06:13:39;;;;;;;12.43;11.73;;;12.70;35.80;;;;;;5045169;28;20532;-56
2022/10/09 06:16:05;;;;;;;12.87;12.17;;;12.70;35.60;;;;;;5047281;28;20509;-56
2022/10/09 06:18:31;;;;;;;14.20;12.90;;;12.50;36.00;;;;;;5046857;28;21037;-56
2022/10/09 06:20:59;;;;;;;13.27;12.27;;;12.20;37.70;;;;;;5043396;28;20233;-56
2022/10/09 06:23:25;;;;;;;14.27;13.17;;;12.10;38.80;;;;;;5042927;28;20176;-54
2022/10/09 06:25:56;;;;;;;14.40;13.10;;;12.30;39.40;;;;;;5046652;28;20410;-55
2022/10/09 06:28:22;;;;;;;13.17;12.57;;;12.40;38.70;;;;;;5047316;28;20458;-55
2022/10/09 06:30:48;;;;;;;14.47;13.50;;;12.30;37.70;;;;;;5045691;28;20767;-56
2022/10/09 06:33:14;;;;;;;11.80;11.00;;;12.30;38.80;;;;;;5044065;28;20422;-55
2022/10/09 06:35:39;;;;;;;12.67;11.70;;;12.40;39.20;;;;;;5045768;28;20420;-56
2022/10/09 06:38:05;;;;;;;14.03;13.23;;;12.20;37.50;;;;;;5042022;28;20212;-54
2022/10/09 06:40:36;;;;;;;13.87;13.07;;;12.10;37.50;;;;;;5043782;28;20206;-56
2022/10/09 06:43:03;;;;;;;13.60;12.70;;;12.10;38.60;;;;;;5047557;28;20178;-56
2022/10/09 06:45:29;;;;;;;14.87;13.77;;;12.00;39.00;;;;;;5050663;28;20447;-56
2022/10/09 06:47:55;;;;;;;12.77;11.93;;;12.10;39.60;;;;;;5050629;28;20481;-57
2022/10/09 06:50:20;;;;;;;13.20;12.30;;;12.30;39.20;;;;;;5033844;28;20421;-55
2022/10/09 06:52:46;;;;;;;14.10;13.13;;;12.20;38.00;;;;;;5050206;28;20288;-56
2022/10/09 06:55:11;;;;;;;12.50;11.80;;;12.20;38.20;;;;;;5052335;28;20179;-56
2022/10/09 06:57:37;;;;;;;13.67;12.50;;;12.20;37.70;;;;;;5050850;28;20211;-56
2022/10/09 07:00:03;;;;;;;13.90;12.73;;;12.10;38.30;;;;;;5049773;28;20186;-53
2022/10/09 07:02:31;;;;;;;13.50;12.50;;;12.10;38.20;;;;;;5050952;28;20175;-60
2022/10/09 07:04:57;;;;;;;14.47;13.57;;;12.10;38.40;;;;;;5070788;28;20418;-60
2022/10/09 07:07:23;;;;;;;13.80;12.60;;;12.30;38.30;;;;;;5050705;28;20482;-60
2022/10/09 07:09:49;;;;;;;13.53;12.67;;;12.40;38.30;;;;;;5052898;28;20457;-60
2022/10/09 07:12:14;;;;;;;13.50;12.80;;;12.60;38.00;;;;;;5053555;28;20194;-60
2022/10/09 07:14:40;;;;;;;14.07;13.27;;;12.60;36.90;;;;;;5071093;28;20191;-61
2022/10/09 07:17:06;;;;;;;14.07;13.37;;;12.40;36.80;;;;;;5053559;28;20640;-61
2022/10/09 07:19:31;;;;;;;12.80;12.10;;;12.30;37.00;;;;;;5051842;28;20271;-61
2022/10/09 07:21:57;;;;;;;13.53;12.83;;;12.40;36.70;;;;;;5037535;28;20206;-60
2022/10/09 07:24:24;;;;;;;13.57;12.57;;;12.30;36.80;;;;;;5031951;28;20614;-60
2022/10/09 07:26:49;;;;;;;13.43;12.63;;;12.20;37.00;;;;;;5032324;28;20625;-60
2022/10/09 07:29:17;;;;;;;11.57;10.87;;;12.30;37.90;;;;;;5031344;28;20422;-55
2022/10/09 07:31:44;;;;;;;12.93;12.10;;;12.40;38.60;;;;;;5032730;28;20464;-54
2022/10/09 07:34:09;;;;;;;12.80;12.07;;;12.60;37.60;;;;;;5049971;28;20430;-54
2022/10/09 07:36:35;;;;;;;12.10;11.50;;;12.50;35.80;;;;;;5028777;28;20422;-55
2022/10/09 07:39:02;;;;;;;12.47;11.80;;;12.30;36.00;;;;;;5033209;28;20684;-54
2022/10/09 07:41:28;;;;;;;13.37;12.47;;;12.40;37.30;;;;;;5032882;28;20501;-55
2022/10/09 07:43:54;;;;;;;12.23;11.53;;;12.60;37.60;;;;;;5034073;28;20759;-54
2022/10/09 07:46:22;;;;;;;12.13;11.23;;;12.70;36.40;;;;;;5033421;28;20415;-55
2022/10/09 07:48:48;;;;;;;12.23;11.53;;;12.70;36.00;;;;;;5035732;28;20183;-55
2022/10/09 07:51:19;;;;;;;12.97;12.20;;;12.70;36.50;;;;;;5033263;28;20831;-55
2022/10/09 07:53:46;;;;;;;11.27;10.57;;;12.90;36.30;;;;;;5034479;28;20508;-53
2022/10/09 07:56:16;;;;;;;12.33;11.53;;;13.00;35.80;;;;;;5032500;28;20461;-57
2022/10/09 07:58:43;;;;;;;11.63;11.03;;;13.10;36.30;;;;;;5031894;28;20469;-58
2022/10/09 08:01:09;;;;;;;11.83;10.67;;;13.20;36.00;;;;;;5029904;28;20414;-58
2022/10/09 08:03:35;;;;;;;10.83;10.20;;;13.30;34.40;;;;;;5035393;28;20419;-58
2022/10/09 08:06:02;;;;;;;11.60;10.70;;;13.30;34.40;;;;;;5049818;28;20411;-58
2022/10/09 08:08:28;;;;;;;11.10;10.40;;;13.30;34.70;;;;;;5032381;28;20449;-58
2022/10/09 08:10:54;;;;;;;12.50;11.70;;;13.40;34.50;;;;;;5032939;28;20422;-58
2022/10/09 08:13:20;;;;;;;10.27;9.73;;;13.50;34.60;;;;;;5031545;28;20445;-58
2022/10/09 08:15:45;;;;;;;9.67;9.17;;;13.50;33.50;;;;;;5051483;28;20305;-58
2022/10/09 08:18:11;;;;;;;10.13;9.53;;;13.40;32.90;;;;;;5031286;28;20243;-58
2022/10/09 08:20:38;;;;;;;10.07;9.37;;;13.40;32.10;;;;;;5027989;28;20240;-58
2022/10/09 08:23:04;;;;;;;9.60;9.00;;;13.30;32.80;;;;;;5029897;28;20407;-58
2022/10/09 08:25:34;;;;;;;9.53;8.63;;;13.20;33.00;;;;;;5027171;28;20782;-58
2022/10/09 08:28:00;;;;;;;9.73;9.03;;;13.20;33.10;;;;;;5028761;28;20422;-57
2022/10/09 08:30:26;;;;;;;8.77;8.17;;;13.20;33.80;;;;;;5048248;28;20425;-59
2022/10/09 08:32:52;;;;;;;9.97;9.37;;;13.30;32.50;;;;;;5032849;28;20268;-58
2022/10/09 08:35:18;;;;;;;10.30;9.53;;;13.30;33.00;;;;;;5029528;28;20273;-58
2022/10/09 08:37:43;;;;;;;9.80;9.30;;;13.40;32.90;;;;;;5029952;28;20980;-58
2022/10/09 08:40:16;;;;;;;9.90;9.30;;;13.40;32.20;;;;;;5031958;28;20187;-58
2022/10/09 08:42:51;;;;;;;10.00;9.50;;;13.60;32.80;;;;;;5026525;28;20175;-58
2022/10/09 08:45:18;;;;;;;10.60;9.97;;;13.60;32.30;;;;;;5032084;28;20542;-50
2022/10/09 08:47:58;;;;;;;10.00;9.23;;;13.60;31.60;;;;;;5029280;28;20422;-53
2022/10/09 08:50:28;;;;;;;10.30;9.60;;;13.60;31.10;;;;;;5027737;28;20441;-54
2022/10/09 08:53:01;;;;;;;9.87;9.27;;;13.50;31.60;;;;;;5029555;28;20442;-54
2022/10/09 08:55:52;;;;;;;10.17;9.43;;;13.60;31.80;;;;;;5032304;28;20414;-53
2022/10/09 08:58:20;;;;;;;9.47;8.90;;;13.60;31.10;;;;;;5041391;28;20572;-52
2022/10/09 09:00:52;;;;;;;10.10;9.40;;;13.60;31.50;;;;;;5026964;28;20427;-54
2022/10/09 09:03:37;;;;;;;9.97;9.27;;;13.70;32.20;;;;;;5027985;28;20422;-51
2022/10/09 09:06:22;;;;;;;9.83;9.43;;;13.90;30.80;;;;;;5025500;28;20410;-53
2022/10/09 09:08:55;;;;;;;10.30;9.50;;;13.90;30.50;;;;;;5031824;28;20413;-53
2022/10/09 09:12:15;;;;;;;10.03;9.33;;;13.90;30.50;;;;;;5047563;28;20470;-52
2022/10/09 09:14:50;;;;;;;9.77;9.30;;;14.10;30.00;;;;;;4959902;28;20529;-53
2022/10/09 09:17:32;;;;;;;9.70;9.20;;;14.40;28.90;;;;;;5030242;28;20462;-53
2022/10/09 09:20:10;;;;;;;9.20;8.67;;;14.50;29.10;;;;;;5025923;28;20418;-53
2022/10/09 09:22:40;;;;;;;10.10;9.40;;;14.60;29.00;;;;;;5043714;28;20485;-51
2022/10/09 09:25:21;;;;;;;9.27;8.87;;;14.90;28.10;;;;;;5028863;28;20923;-59
2022/10/09 09:27:47;;;;;;;8.73;8.20;;;15.10;26.70;;;;;;5026008;28;20422;-59
2022/10/09 09:30:18;;;;;;;8.77;8.20;;;15.10;26.70;;;;;;5028247;28;20492;-59
2022/10/09 09:33:10;;;;;;;9.07;8.57;;;15.20;26.40;;;;;;5032967;28;20430;-59
2022/10/09 09:35:45;;;;;;;8.10;7.70;;;15.20;25.60;;;;;;5025770;28;20525;-59
2022/10/09 09:38:12;;;;;;;9.43;8.63;;;15.10;25.60;;;;;;5026672;28;20974;-59
2022/10/09 09:40:38;;;;;;;8.90;8.10;;;15.20;26.50;;;;;;5025123;28;20415;-59
2022/10/09 09:43:21;;;;;;;7.70;7.30;;;15.20;26.10;;;;;;5026979;28;20429;-60
2022/10/09 09:45:51;;;;;;;8.50;7.83;;;15.30;25.70;;;;;;5026972;28;20586;-60
2022/10/09 09:48:27;;;;;;;7.50;7.20;;;15.40;25.50;;;;;;5026038;28;20430;-57
2022/10/09 09:50:53;;;;;;;8.20;7.90;;;15.50;25.00;;;;;;5043130;28;20426;-58
2022/10/09 09:53:19;;;;;;;7.90;7.43;;;15.40;24.90;;;;;;5038847;28;20471;-59
2022/10/09 09:55:44;;;;;;;8.57;8.17;;;15.50;25.00;;;;;;5045706;28;20457;-58
2022/10/09 09:58:16;;;;;;;7.57;7.00;;;15.50;24.90;;;;;;5027365;28;20211;-58
2022/10/09 10:00:53;;;;;;;7.37;6.97;;;15.50;24.60;;;;;;5041703;28;20190;-57
2022/10/09 10:03:20;;;;;;;7.40;6.90;;;15.60;24.00;;;;;;5044409;28;20414;-57
2022/10/09 10:05:46;;;;;;;7.20;6.90;;;15.70;23.40;;;;;;5044073;28;20459;-59
2022/10/09 10:08:27;;;;;;;6.97;6.57;;;15.90;22.10;;;;;;5043985;28;20460;-59
2022/10/09 10:10:55;;;;;;;8.07;7.67;;;16.00;23.00;;;;;;5043953;28;20458;-59
2022/10/09 10:13:36;;;;;;;7.63;7.33;;;16.00;23.60;;;;;;5045947;28;20729;-61
2022/10/09 10:16:03;;;;;;;9.23;7.47;;;16.10;23.80;;;;;;5044305;28;20421;-59
2022/10/09 10:18:35;;;;;;;8.10;7.70;;;16.20;24.20;;;;;;5047063;28;20464;-59
2022/10/09 10:21:21;;;;;;;6.97;6.67;;;16.30;23.60;;;;;;5048940;28;20413;-61
2022/10/09 10:24:02;;;;;;;19.13;15.80;;;16.40;23.20;;;;;;5053137;28;20750;-57
2022/10/09 10:26:55;;;;;;;7.17;6.87;;;16.60;24.30;;;;;;5052395;28;20429;-59
2022/10/09 10:29:30;;;;;;;7.40;7.10;;;16.80;23.10;;;;;;5031099;28;20426;-60
2022/10/09 10:32:16;;;;;;;7.30;6.90;;;16.90;22.50;;;;;;5047548;28;20429;-59
2022/10/09 10:35:09;;;;;;;7.07;6.73;;;17.00;22.20;;;;;;5051172;28;20425;-62
2022/10/09 10:37:58;;;;;;;6.93;6.53;;;17.10;21.60;;;;;;5052136;28;20520;-61
2022/10/09 10:40:59;;;;;;;7.87;7.57;;;17.20;19.80;;;;;;5051106;28;20467;-61
2022/10/09 10:43:41;;;;;;;7.07;6.77;;;17.20;19.80;;;;;;5030914;28;20825;-65
2022/10/09 10:46:31;;;;;;;7.10;6.80;;;17.10;20.60;;;;;;5072557;28;20923;-60
2022/10/09 10:48:58;;;;;;;7.27;6.70;;;17.10;20.40;;;;;;5072777;28;20520;-61
2022/10/09 10:51:52;;;;;;;7.00;6.60;;;17.20;19.00;;;;;;5070859;28;20420;-60
2022/10/09 10:54:41;;;;;;;7.07;6.77;;;17.20;18.40;;;;;;5032419;28;20804;-61
2022/10/09 10:57:15;;;;;;;6.53;6.33;;;17.10;18.30;;;;;;5030591;28;20445;-64
2022/10/09 11:00:04;;;;;;;7.17;6.87;;;17.10;18.20;;;;;;5052339;28;20414;-64
2022/10/09 11:02:47;;;;;;;6.27;6.07;;;17.10;18.10;;;;;;5036036;28;20418;-61
2022/10/09 11:05:45;;;;;;;6.80;6.50;;;17.10;17.50;;;;;;5036035;28;20428;-61
2022/10/09 11:08:38;;;;;;;6.13;5.80;;;17.10;17.70;;;;;;5036873;28;20767;-61
2022/10/09 11:11:11;;;;;;;7.90;7.43;;;17.10;17.60;;;;;;5043577;28;20416;-61
2022/10/09 11:13:48;;;;;;;6.63;6.30;;;17.20;17.90;;;;;;5054872;28;20456;-60
2022/10/09 11:16:33;;;;;;;7.00;6.40;;;17.30;17.50;;;;;;5056069;28;20436;-61
2022/10/09 11:19:13;;;;;;;7.57;7.03;;;17.30;16.90;;;;;;5055315;28;20465;-61
2022/10/09 11:22:03;;;;;;;7.50;7.00;;;17.40;17.10;;;;;;5053145;28;20504;-61
2022/10/09 11:24:36;;;;;;;7.77;7.47;;;17.30;17.20;;;;;;5055299;28;20417;-61
2022/10/09 11:27:22;;;;;;;6.77;6.50;;;17.40;16.90;;;;;;5054212;28;20792;-61
2022/10/09 11:30:01;;;;;;;6.80;6.50;;;17.40;16.60;;;;;;5054587;28;20867;-61
2022/10/09 11:32:48;;;;;;;6.33;6.03;;;17.40;16.90;;;;;;5051360;28;20478;-61
2022/10/09 11:35:19;;;;;;;6.40;6.07;;;17.40;17.00;;;;;;5045714;28;20414;-61
2022/10/09 11:38:11;;;;;;;6.50;6.30;;;17.30;16.60;;;;;;5041397;28;20860;-61
2022/10/09 11:40:41;;;;;;;7.13;6.70;;;17.40;17.10;;;;;;5049496;28;20764;-60
2022/10/09 11:43:16;;;;;;;6.60;6.30;;;17.30;17.90;;;;;;5034178;28;20419;-60
2022/10/09 11:46:08;;;;;;;6.80;6.40;;;17.20;17.20;;;;;;5034169;28;20597;-60
2022/10/09 11:48:55;;;;;;;6.83;6.53;;;17.20;17.50;;;;;;5029389;28;20426;-60
2022/10/09 11:51:30;;;;;;;6.73;6.43;;;17.30;17.20;;;;;;5033491;28;20910;-61
2022/10/09 11:53:56;;;;;;;5.93;5.73;;;17.30;17.00;;;;;;5040449;28;20827;-61
2022/10/09 11:56:28;;;;;;;6.00;5.80;;;17.30;17.10;;;;;;5052228;28;20513;-61
2022/10/09 11:59:00;;;;;;;7.17;6.77;;;17.40;17.30;;;;;;5056039;28;20461;-62
2022/10/09 12:01:38;;;;;;;7.07;6.67;;;17.40;17.40;;;;;;5055223;28;20413;-61
2022/10/09 12:04:13;;;;;;;7.10;6.70;;;17.50;17.10;;;;;;5050452;28;20434;-61
2022/10/09 12:06:54;;;;;;;6.83;6.53;;;17.50;17.30;;;;;;5035774;28;20948;-62
2022/10/09 12:09:25;;;;;;;6.37;5.97;;;17.50;16.90;;;;;;5034670;28;20575;-62
2022/10/09 12:12:02;;;;;;;6.67;6.47;;;17.50;17.00;;;;;;5034411;28;20456;-62
2022/10/09 12:14:28;;;;;;;6.77;6.57;;;17.50;16.50;;;;;;5035891;28;20437;-62
2022/10/09 12:16:55;;;;;;;6.20;5.90;;;17.40;16.80;;;;;;5034926;28;20437;-62
2022/10/09 12:19:38;;;;;;;6.70;6.40;;;17.50;17.00;;;;;;5035696;28;20462;-61
2022/10/09 12:22:26;;;;;;;6.33;6.13;;;17.40;17.00;;;;;;5034657;28;20765;-62
2022/10/09 12:24:58;;;;;;;6.43;6.03;;;17.50;17.20;;;;;;5035098;28;20441;-61
2022/10/09 12:27:26;;;;;;;6.27;5.97;;;17.50;17.40;;;;;;5035534;28;20411;-62
2022/10/09 12:30:20;;;;;;;6.93;6.30;;;17.60;17.20;;;;;;5035082;28;20453;-61
2022/10/09 12:32:53;;;;;;;5.83;5.60;;;17.60;16.90;;;;;;5047132;28;20423;-61
2022/10/09 12:35:33;;;;;;;6.10;5.70;;;17.70;16.80;;;;;;5039056;28;20429;-61
2022/10/09 12:37:59;;;;;;;6.27;5.77;;;17.70;16.70;;;;;;5034867;28;20472;-61
2022/10/09 12:40:31;;;;;;;5.90;5.70;;;17.70;16.90;;;;;;5033904;28;20422;-62
2022/10/09 12:42:59;;;;;;;6.90;6.50;;;17.70;16.90;;;;;;5035219;28;20690;-61
2022/10/09 12:45:29;;;;;;;6.93;6.63;;;17.70;16.50;;;;;;5035305;28;20450;-61
2022/10/09 12:47:58;;;;;;;6.30;6.00;;;17.70;16.60;;;;;;5033467;28;20438;-61
2022/10/09 12:50:32;;;;;;;6.60;6.40;;;17.70;16.60;;;;;;5033585;28;20410;-61
2022/10/09 12:53:01;;;;;;;7.03;6.63;;;17.70;16.50;;;;;;5033551;28;20501;-61